createdAt,value
2019-03-13T00:00:22.849Z,68.55
2019-03-13T00:01:26.152Z,68.04
2019-03-13T00:02:37.544Z,68.13
2019-03-13T00:03:22.900Z,68.55
2019-03-13T00:04:22.715Z,68.71
2019-03-13T00:05:22.932Z,68.52
2019-03-13T00:06:22.962Z,68.65
2019-03-13T00:07:22.966Z,68.13
2019-03-13T00:08:23.026Z,67.98
2019-03-13T00:09:22.995Z,68.65
2019-03-13T00:10:23.012Z,68.17
2019-03-13T00:11:23.033Z,68.36
2019-03-13T00:12:23.044Z,68.17
2019-03-13T00:13:23.063Z,68.17
2019-03-13T00:14:23.071Z,68.17
2019-03-13T00:15:23.088Z,67.98
2019-03-13T00:16:23.104Z,68.27
2019-03-13T00:17:23.120Z,68.17
2019-03-13T00:18:37.799Z,67.79
2019-03-13T00:19:23.152Z,67.5
2019-03-13T00:20:23.273Z,67.79
2019-03-13T00:21:23.235Z,68.17
2019-03-13T00:22:23.200Z,67.5
2019-03-13T00:23:23.218Z,67.32
2019-03-13T00:24:23.232Z,67.98
2019-03-13T00:25:23.250Z,67.5
2019-03-13T00:26:23.266Z,68.17
2019-03-13T00:27:23.283Z,68.36
2019-03-13T00:28:23.296Z,68.36
2019-03-13T00:29:23.328Z,68.27
2019-03-13T00:31:23.345Z,68.17
2019-03-13T00:32:23.374Z,67.6
2019-03-13T00:33:38.041Z,67.79
2019-03-13T00:34:23.394Z,68.17
2019-03-13T00:35:23.412Z,67.98
2019-03-13T00:36:23.429Z,67.88
2019-03-13T00:37:23.445Z,67.88
2019-03-13T00:38:23.457Z,67.79
2019-03-13T00:39:23.473Z,67.6
2019-03-13T00:40:23.495Z,68.27
2019-03-13T00:41:23.557Z,68.17
2019-03-13T00:42:23.548Z,68.17
2019-03-13T00:43:23.542Z,67.79
2019-03-13T00:44:23.556Z,67.13
2019-03-13T00:47:23.611Z,66.94
2019-03-13T00:48:23.623Z,67.03
2019-03-13T00:49:23.636Z,66.08
2019-03-13T00:50:23.651Z,66.17
2019-03-13T00:51:23.676Z,65.51
2019-03-13T00:52:23.688Z,65.7
2019-03-13T00:53:23.701Z,66.17
2019-03-13T00:54:23.715Z,66.27
2019-03-13T00:55:23.739Z,66.74
2019-03-13T00:56:23.753Z,66.65
2019-03-13T00:57:23.765Z,66.74
2019-03-13T00:59:23.797Z,66.08
2019-03-13T01:01:23.831Z,65.89
2019-03-13T01:02:23.847Z,65.7
2019-03-13T01:03:23.863Z,65.8
2019-03-13T01:04:23.879Z,66.46
2019-03-13T01:05:38.559Z,66.08
2019-03-13T01:06:23.912Z,66.08
2019-03-13T01:07:23.927Z,65.51
2019-03-13T01:08:23.943Z,65.03
2019-03-13T01:09:23.961Z,65.89
2019-03-13T01:10:23.978Z,65.51
2019-03-13T01:11:27.074Z,65.41
2019-03-13T01:12:24.010Z,65.32
2019-03-13T01:13:24.026Z,65.41
2019-03-13T01:14:24.044Z,65.8
2019-03-13T01:15:24.074Z,65.6
2019-03-13T01:16:24.076Z,66.27
2019-03-13T01:17:24.096Z,66.36
2019-03-13T01:18:24.107Z,66.27
2019-03-13T01:20:24.138Z,67.98
2019-03-13T01:21:38.819Z,68.07
2019-03-13T01:22:24.174Z,66.84
2019-03-13T01:23:24.188Z,66.36
2019-03-13T01:24:24.209Z,66.36
2019-03-13T01:25:24.221Z,66.65
2019-03-13T01:26:24.237Z,67.13
2019-03-13T01:27:24.263Z,67.22
2019-03-13T01:28:24.269Z,66.84
2019-03-13T01:29:24.286Z,66.94
2019-03-13T01:30:24.303Z,66.84
2019-03-13T01:31:24.318Z,67.13
2019-03-13T01:33:24.353Z,66.55
2019-03-13T01:34:24.381Z,66.94
2019-03-13T01:35:24.384Z,66.46
2019-03-13T01:36:24.404Z,66.84
2019-03-13T01:37:39.079Z,66.94
2019-03-13T01:38:24.434Z,66.94
2019-03-13T01:40:24.465Z,66.74
2019-03-13T01:41:24.481Z,67.32
2019-03-13T01:42:24.501Z,67.69
2019-03-13T01:43:24.516Z,67.22
2019-03-13T01:44:24.530Z,67.41
2019-03-13T01:45:24.547Z,68.07
2019-03-13T01:46:24.566Z,69.79
2019-03-13T01:47:24.581Z,72.35
2019-03-13T01:48:24.596Z,72.92
2019-03-13T01:49:24.367Z,72.83
2019-03-13T01:50:24.630Z,72.55
2019-03-13T01:51:24.647Z,72.83
2019-03-13T01:52:24.660Z,73.88
2019-03-13T01:53:39.341Z,74.63
2019-03-13T01:54:24.695Z,75.87
2019-03-13T01:55:24.727Z,76.44
2019-03-13T01:56:24.732Z,77.77
2019-03-13T01:57:24.743Z,79.73
2019-03-13T01:59:24.775Z,82.29
2019-03-13T02:00:24.794Z,83.34
2019-03-13T02:01:24.910Z,83.53
2019-03-13T02:03:24.840Z,83.62
2019-03-13T02:04:24.856Z,84.58
2019-03-13T02:05:24.923Z,85.05
2019-03-13T02:07:24.907Z,85.91
2019-03-13T02:08:39.586Z,86.1
2019-03-13T02:09:24.939Z,86.76
2019-03-13T02:10:25.005Z,87.52
2019-03-13T02:11:24.970Z,87.34
2019-03-13T02:12:24.989Z,87.71
2019-03-13T02:13:25.003Z,88.76
2019-03-13T02:14:25.020Z,89.23
2019-03-13T02:15:25.033Z,90.19
2019-03-13T02:16:25.051Z,90.09
2019-03-13T02:17:25.066Z,90.85
2019-03-13T02:18:25.082Z,92.08
2019-03-13T02:19:25.099Z,91.89
2019-03-13T02:20:25.115Z,92.71
2019-03-13T02:21:25.140Z,93.27
2019-03-13T02:22:25.148Z,93.75
2019-03-13T02:23:25.164Z,94.51
2019-03-13T02:24:25.179Z,95.27
2019-03-13T02:25:25.194Z,96.31
2019-03-13T02:26:25.231Z,96.41
2019-03-13T02:27:25.227Z,97.27
2019-03-13T02:28:25.241Z,97.55
2019-03-13T02:29:25.258Z,97.83
2019-03-13T02:30:25.294Z,98.31
2019-03-13T02:31:25.301Z,98.97
2019-03-13T02:32:25.362Z,98.97
2019-03-13T02:33:25.327Z,99.26
2019-03-13T02:34:25.402Z,99.73
2019-03-13T02:35:25.355Z,99.73
2019-03-13T02:37:25.387Z,99.99
2019-03-13T02:38:25.403Z,99.99
2019-03-13T02:39:25.497Z,99.99
2019-03-13T02:40:40.095Z,99.99
2019-03-13T02:41:25.460Z,99.99
2019-03-13T02:42:25.587Z,99.99
2019-03-13T02:43:25.531Z,99.99
2019-03-13T02:44:25.503Z,99.99
2019-03-13T02:45:25.522Z,99.99
2019-03-13T02:46:25.533Z,99.99
2019-03-13T02:47:25.558Z,99.99
2019-03-13T02:48:25.582Z,99.99
2019-03-13T02:49:25.592Z,99.99
2019-03-13T02:50:25.604Z,99.99
2019-03-13T02:51:25.729Z,99.99
2019-03-13T02:52:25.628Z,99.99
2019-03-13T02:53:25.823Z,99.99
2019-03-13T02:54:25.654Z,99.99
2019-03-13T02:55:25.676Z,99.99
2019-03-13T02:56:40.351Z,99.99
2019-03-13T02:57:25.704Z,99.99
2019-03-13T02:59:25.776Z,99.99
2019-03-13T03:00:25.746Z,99.99
2019-03-13T03:01:25.520Z,99.99
2019-03-13T03:02:25.779Z,99.99
2019-03-13T03:03:25.796Z,99.99
2019-03-13T03:04:25.809Z,99.99
2019-03-13T03:05:25.844Z,99.99
2019-03-13T03:06:25.846Z,99.99
2019-03-13T03:07:25.861Z,99.99
2019-03-13T03:08:25.875Z,99.99
2019-03-13T03:09:25.919Z,99.99
2019-03-13T03:10:25.913Z,99.99
2019-03-13T03:11:25.943Z,99.99
2019-03-13T03:12:40.596Z,99.99
2019-03-13T03:13:25.981Z,99.99
2019-03-13T03:14:25.973Z,99.99
2019-03-13T03:15:25.989Z,99.99
2019-03-13T03:16:25.995Z,99.99
2019-03-13T03:17:26.013Z,99.99
2019-03-13T03:18:26.029Z,99.99
2019-03-13T03:19:26.046Z,99.99
2019-03-13T03:20:26.060Z,99.99
2019-03-13T03:21:26.215Z,99.99
2019-03-13T03:22:26.095Z,99.99
2019-03-13T03:23:26.110Z,99.99
2019-03-13T03:24:26.180Z,99.99
2019-03-13T03:25:26.155Z,99.99
2019-03-13T03:26:26.155Z,99.99
2019-03-13T03:27:26.273Z,99.99
2019-03-13T03:28:40.847Z,99.99
2019-03-13T03:29:26.202Z,99.99
2019-03-13T03:30:26.358Z,99.99
2019-03-13T03:31:26.245Z,99.99
2019-03-13T03:32:26.272Z,99.99
2019-03-13T03:33:26.281Z,99.99
2019-03-13T03:34:26.287Z,99.99
2019-03-13T03:35:26.299Z,99.99
2019-03-13T03:36:26.317Z,99.99
2019-03-13T03:37:26.334Z,99.99
2019-03-13T03:38:26.392Z,99.99
2019-03-13T03:39:26.366Z,99.99
2019-03-13T03:40:26.382Z,99.99
2019-03-13T03:41:26.395Z,99.99
2019-03-13T03:42:26.416Z,99.99
2019-03-13T03:43:41.311Z,99.99
2019-03-13T03:44:26.444Z,99.99
2019-03-13T03:45:26.459Z,99.99
2019-03-13T03:46:26.472Z,99.99
2019-03-13T03:47:26.488Z,99.99
2019-03-13T03:48:26.504Z,99.99
2019-03-13T03:49:26.517Z,99.99
2019-03-13T03:50:26.544Z,99.99
2019-03-13T03:51:26.553Z,99.99
2019-03-13T03:52:26.584Z,99.99
2019-03-13T03:53:26.585Z,99.99
2019-03-13T03:54:26.600Z,99.99
2019-03-13T03:55:26.710Z,99.99
2019-03-13T03:57:26.647Z,99.99
2019-03-13T03:58:29.143Z,99.99
2019-03-13T03:59:26.708Z,99.99
2019-03-13T04:00:26.699Z,99.99
2019-03-13T04:01:26.723Z,99.99
2019-03-13T04:02:26.728Z,99.99
2019-03-13T04:03:26.734Z,99.99
2019-03-13T04:04:26.762Z,99.99
2019-03-13T04:05:26.767Z,99.99
2019-03-13T04:06:26.786Z,99.99
2019-03-13T04:07:26.814Z,99.99
2019-03-13T04:08:26.907Z,99.99
2019-03-13T04:09:26.844Z,99.99
2019-03-13T04:10:26.845Z,99.99
2019-03-13T04:12:26.879Z,99.99
2019-03-13T04:13:26.893Z,99.99
2019-03-13T04:14:26.915Z,99.99
2019-03-13T04:15:41.586Z,99.99
2019-03-13T04:16:26.953Z,99.99
2019-03-13T04:17:26.958Z,99.99
2019-03-13T04:18:27.119Z,99.99
2019-03-13T04:20:27.015Z,99.99
2019-03-13T04:22:27.036Z,99.99
2019-03-13T04:23:27.055Z,99.58
2019-03-13T04:24:27.066Z,99.99
2019-03-13T04:27:27.220Z,99.99
2019-03-13T04:28:27.130Z,99.21
2019-03-13T04:29:27.142Z,98.92
2019-03-13T04:30:27.161Z,97.5
2019-03-13T04:31:41.844Z,97.6
2019-03-13T04:32:27.199Z,97.6
2019-03-13T04:33:30.875Z,97.31
2019-03-13T04:34:27.221Z,96.36
2019-03-13T04:35:27.251Z,95.98
2019-03-13T04:36:27.252Z,96.17
2019-03-13T04:37:27.289Z,95.98
2019-03-13T04:38:27.283Z,94.65
2019-03-13T04:39:27.331Z,94.65
2019-03-13T04:40:27.313Z,95.03
2019-03-13T04:41:27.326Z,95.89
2019-03-13T04:42:27.343Z,95.6
2019-03-13T04:44:27.375Z,96.17
2019-03-13T04:45:27.394Z,96.08
2019-03-13T04:46:27.413Z,96.26
2019-03-13T04:47:42.170Z,96.08
2019-03-13T04:48:27.440Z,96.36
2019-03-13T04:49:27.451Z,95.89
2019-03-13T04:50:27.467Z,96.17
2019-03-13T04:51:27.482Z,95.7
2019-03-13T04:52:27.502Z,95.89
2019-03-13T04:53:27.512Z,95.6
2019-03-13T04:54:27.529Z,95.79
2019-03-13T04:55:27.545Z,95.51
2019-03-13T04:56:27.561Z,95.6
2019-03-13T04:57:27.574Z,95.41
2019-03-13T04:58:27.588Z,95.31
2019-03-13T04:59:27.609Z,94.93
2019-03-13T05:00:27.620Z,94.46
2019-03-13T05:01:28.798Z,94.27
2019-03-13T05:02:27.650Z,93.99
2019-03-13T05:03:42.329Z,94.46
2019-03-13T05:04:27.683Z,94.18
2019-03-13T05:05:27.697Z,93.51
2019-03-13T05:06:27.712Z,93.6
2019-03-13T05:07:27.728Z,93.99
2019-03-13T05:08:27.747Z,93.51
2019-03-13T05:09:27.811Z,92.56
2019-03-13T05:10:27.773Z,91.52
2019-03-13T05:11:27.789Z,91.33
2019-03-13T05:12:27.806Z,91.04
2019-03-13T05:13:27.826Z,91.47
2019-03-13T05:14:27.824Z,90.62
2019-03-13T05:15:27.835Z,90.71
2019-03-13T05:16:27.851Z,91
2019-03-13T05:17:27.866Z,90.81
2019-03-13T05:18:42.554Z,90.71
2019-03-13T05:19:27.899Z,90.9
2019-03-13T05:20:27.914Z,90.43
2019-03-13T05:21:27.930Z,90.05
2019-03-13T05:22:27.943Z,90.14
2019-03-13T05:23:27.960Z,90.43
2019-03-13T05:26:28.038Z,90.24
2019-03-13T05:27:28.019Z,90.24
2019-03-13T05:28:28.038Z,90.14
2019-03-13T05:29:28.050Z,90.43
2019-03-13T05:30:28.178Z,90.9
2019-03-13T05:31:28.081Z,90.9
2019-03-13T05:32:28.249Z,90.43
2019-03-13T05:33:28.142Z,91.09
2019-03-13T05:34:28.126Z,91.28
2019-03-13T05:35:28.140Z,90.9
2019-03-13T05:36:28.157Z,91.38
2019-03-13T05:37:28.171Z,91.38
2019-03-13T05:38:28.193Z,91.85
2019-03-13T05:39:28.217Z,91.66
2019-03-13T05:41:28.237Z,91.66
2019-03-13T05:42:28.246Z,91.47
2019-03-13T05:43:28.263Z,91.85
2019-03-13T05:44:28.276Z,91.47
2019-03-13T05:45:28.292Z,91.75
2019-03-13T05:46:28.309Z,91.66
2019-03-13T05:47:28.322Z,91.66
2019-03-13T05:48:28.344Z,91.47
2019-03-13T05:49:28.353Z,91.75
2019-03-13T05:50:43.040Z,91.38
2019-03-13T05:51:28.383Z,91.38
2019-03-13T05:52:28.399Z,91.19
2019-03-13T05:53:28.415Z,91.28
2019-03-13T05:54:28.427Z,91.19
2019-03-13T05:55:28.443Z,90.9
2019-03-13T05:56:28.460Z,91.38
2019-03-13T05:57:28.476Z,91.28
2019-03-13T05:58:28.489Z,91.28
2019-03-13T05:59:28.521Z,91.47
2019-03-13T06:00:28.535Z,91.38
2019-03-13T06:02:28.571Z,91.47
2019-03-13T06:03:28.588Z,91.28
2019-03-13T06:04:28.599Z,91.19
2019-03-13T06:05:28.611Z,91.56
2019-03-13T06:06:43.291Z,91.38
2019-03-13T06:07:28.695Z,91.38
2019-03-13T06:08:28.666Z,91.38
2019-03-13T06:09:28.675Z,91
2019-03-13T06:10:28.697Z,91
2019-03-13T06:11:28.708Z,91
2019-03-13T06:12:28.726Z,91.09
2019-03-13T06:13:28.737Z,90.24
2019-03-13T06:14:28.810Z,89.9
2019-03-13T06:15:28.770Z,89.53
2019-03-13T06:16:28.787Z,89.72
2019-03-13T06:17:28.817Z,89.43
2019-03-13T06:19:28.837Z,88.67
2019-03-13T06:20:28.858Z,88.48
2019-03-13T06:21:28.871Z,89.33
2019-03-13T06:22:43.554Z,88.39
2019-03-13T06:23:28.907Z,88.39
2019-03-13T06:24:28.937Z,87.43
2019-03-13T06:26:28.954Z,88.57
2019-03-13T06:27:28.972Z,87.91
2019-03-13T06:28:29.037Z,88.1
2019-03-13T06:29:31.572Z,87.91
2019-03-13T06:30:29.021Z,88.39
2019-03-13T06:31:29.036Z,88.2
2019-03-13T06:32:29.052Z,87.43
2019-03-13T06:33:29.067Z,87.53
2019-03-13T06:35:29.105Z,87.05
2019-03-13T06:36:29.123Z,87.43
2019-03-13T06:37:29.134Z,87.24
2019-03-13T06:38:43.814Z,87.34
2019-03-13T06:39:31.877Z,86.87
2019-03-13T06:40:29.190Z,87.43
2019-03-13T06:41:29.196Z,86.96
2019-03-13T06:42:29.227Z,87.53
2019-03-13T06:43:29.236Z,87.34
2019-03-13T06:44:29.246Z,87.05
2019-03-13T06:45:29.263Z,87.24
2019-03-13T06:46:29.277Z,88.05
2019-03-13T06:47:29.047Z,87.72
2019-03-13T06:48:29.312Z,86.58
2019-03-13T06:50:29.360Z,87.34
2019-03-13T06:51:29.363Z,87.24
2019-03-13T06:52:31.575Z,87.24
2019-03-13T06:53:44.053Z,87.15
2019-03-13T06:54:29.407Z,87.24
2019-03-13T06:55:29.426Z,87.05
2019-03-13T06:56:29.439Z,87.24
2019-03-13T06:57:29.575Z,87.43
2019-03-13T06:58:29.470Z,87.62
2019-03-13T06:59:29.484Z,87.34
2019-03-13T07:00:29.263Z,87.05
2019-03-13T07:01:29.518Z,86.77
2019-03-13T07:02:29.586Z,87.48
2019-03-13T07:03:29.551Z,87.29
2019-03-13T07:04:29.568Z,87.48
2019-03-13T07:06:29.607Z,87.38
2019-03-13T07:07:29.666Z,86.82
2019-03-13T07:08:29.730Z,87.67
2019-03-13T07:09:29.695Z,86.63
2019-03-13T07:10:29.663Z,85.96
2019-03-13T07:11:29.676Z,86.15
2019-03-13T07:12:29.697Z,86.05
2019-03-13T07:13:29.717Z,86.43
2019-03-13T07:14:29.729Z,87.01
2019-03-13T07:15:29.743Z,87.38
2019-03-13T07:16:29.757Z,86.43
2019-03-13T07:17:29.778Z,87.29
2019-03-13T07:18:29.791Z,87.38
2019-03-13T07:20:29.877Z,86
2019-03-13T07:21:29.842Z,85.91
2019-03-13T07:22:29.865Z,84.86
2019-03-13T07:23:29.929Z,83.86
2019-03-13T07:24:29.922Z,82.91
2019-03-13T07:25:44.591Z,82.43
2019-03-13T07:26:29.978Z,81.62
2019-03-13T07:27:29.967Z,80.95
2019-03-13T07:28:29.985Z,81.05
2019-03-13T07:29:30.032Z,80.86
2019-03-13T07:30:30.047Z,80.47
2019-03-13T07:31:30.090Z,80.29
2019-03-13T07:32:29.819Z,79.72
2019-03-13T07:33:30.083Z,80.47
2019-03-13T07:34:30.110Z,80.29
2019-03-13T07:35:30.136Z,80.57
2019-03-13T07:36:30.144Z,80.76
2019-03-13T07:37:30.165Z,80.44
2019-03-13T07:38:30.189Z,80.53
2019-03-13T07:39:30.206Z,81.01
2019-03-13T07:40:30.224Z,80.63
2019-03-13T07:41:44.909Z,80.44
2019-03-13T07:42:30.264Z,81.2
2019-03-13T07:43:30.283Z,81.29
2019-03-13T07:45:30.325Z,81.38
2019-03-13T07:46:30.343Z,80.91
2019-03-13T07:47:31.881Z,81.58
2019-03-13T07:48:30.379Z,80.53
2019-03-13T07:49:30.499Z,80.91
2019-03-13T07:50:30.416Z,80.53
2019-03-13T07:51:30.438Z,80.53
2019-03-13T07:52:32.661Z,80.15
2019-03-13T07:53:30.530Z,80.15
2019-03-13T07:54:30.496Z,80.44
2019-03-13T07:55:30.515Z,81.01
2019-03-13T07:56:30.530Z,79.86
2019-03-13T07:57:45.218Z,80.15
2019-03-13T07:58:30.574Z,79.68
2019-03-13T07:59:30.595Z,79.58
2019-03-13T08:00:30.615Z,79.11
2019-03-13T08:01:30.625Z,79.86
2019-03-13T08:02:30.660Z,79.86
2019-03-13T08:03:30.769Z,79.2
2019-03-13T08:04:30.695Z,79.68
2019-03-13T08:05:30.700Z,79.68
2019-03-13T08:06:30.719Z,80.05
2019-03-13T08:07:30.848Z,80.34
2019-03-13T08:08:30.757Z,80.53
2019-03-13T08:10:30.804Z,80.05
2019-03-13T08:11:30.826Z,79.3
2019-03-13T08:12:30.939Z,79.68
2019-03-13T08:13:45.515Z,79.96
2019-03-13T08:14:30.870Z,79.3
2019-03-13T08:15:30.889Z,78.1
2019-03-13T08:16:30.913Z,77.43
2019-03-13T08:17:30.934Z,77.72
2019-03-13T08:18:30.951Z,76.86
2019-03-13T08:19:31.018Z,77.72
2019-03-13T08:20:30.988Z,77.37
2019-03-13T08:21:31.010Z,77.47
2019-03-13T08:22:31.029Z,76.33
2019-03-13T08:23:31.048Z,76.81
2019-03-13T08:24:31.069Z,76.33
2019-03-13T08:27:31.132Z,78
2019-03-13T08:28:45.819Z,76.96
2019-03-13T08:29:31.175Z,76.23
2019-03-13T08:30:31.294Z,76.2
2019-03-13T08:31:31.220Z,77.05
2019-03-13T08:32:31.235Z,76.61
2019-03-13T08:33:31.256Z,76.04
2019-03-13T08:34:31.275Z,75.67
2019-03-13T08:35:31.296Z,74.71
2019-03-13T08:36:31.320Z,74.52
2019-03-13T08:37:31.338Z,74.24
2019-03-13T08:38:31.364Z,74.8
2019-03-13T08:39:31.384Z,74.52
2019-03-13T08:40:31.404Z,73.85
2019-03-13T08:42:31.442Z,72.81
2019-03-13T08:43:31.468Z,72.24
2019-03-13T08:44:31.489Z,72.46
2019-03-13T08:45:31.504Z,72.65
2019-03-13T08:46:31.524Z,72.02
2019-03-13T08:47:31.545Z,71.64
2019-03-13T08:48:31.567Z,71.68
2019-03-13T08:49:31.350Z,71.01
2019-03-13T08:50:31.609Z,70.82
2019-03-13T08:51:31.635Z,71.01
2019-03-13T08:52:31.654Z,70.63
2019-03-13T08:53:31.672Z,70.72
2019-03-13T08:54:31.694Z,70.06
2019-03-13T08:55:31.719Z,69.96
2019-03-13T08:56:31.735Z,69.68
2019-03-13T08:57:31.758Z,69.48
2019-03-13T08:58:31.782Z,69.87
2019-03-13T08:59:31.799Z,69.83
2019-03-13T09:00:46.484Z,70.69
2019-03-13T09:01:31.844Z,70.97
2019-03-13T09:02:31.862Z,70.69
2019-03-13T09:03:31.882Z,71.45
2019-03-13T09:04:31.903Z,71.17
2019-03-13T09:05:31.925Z,71.73
2019-03-13T09:06:31.950Z,70.63
2019-03-13T09:07:31.967Z,70.25
2019-03-13T09:08:31.989Z,69.14
2019-03-13T09:09:32.011Z,68.28
2019-03-13T09:10:32.035Z,67.52
2019-03-13T09:11:32.094Z,66.94
2019-03-13T09:12:32.080Z,67.14
2019-03-13T09:13:32.097Z,66.94
2019-03-13T09:14:32.119Z,67.2
2019-03-13T09:15:32.138Z,67.42
2019-03-13T09:16:46.826Z,67.14
2019-03-13T09:17:32.185Z,66.94
2019-03-13T09:18:32.208Z,66.28
2019-03-13T09:19:32.234Z,66.94
2019-03-13T09:20:32.252Z,67.42
2019-03-13T09:21:33.770Z,66.56
2019-03-13T09:22:32.294Z,65.89
2019-03-13T09:23:32.317Z,67.04
2019-03-13T09:24:32.340Z,67.14
2019-03-13T09:25:32.360Z,66.94
2019-03-13T09:26:32.382Z,66.47
2019-03-13T09:27:32.408Z,66.47
2019-03-13T09:29:32.694Z,66.38
2019-03-13T09:30:32.501Z,67.33
2019-03-13T09:31:32.500Z,66.56
2019-03-13T09:32:47.180Z,66.75
2019-03-13T09:33:32.539Z,66.94
2019-03-13T09:34:32.560Z,67.71
2019-03-13T09:35:32.586Z,67.33
2019-03-13T09:36:32.635Z,67.42
2019-03-13T09:37:32.378Z,67.42
2019-03-13T09:38:32.652Z,68.34
2019-03-13T09:39:32.682Z,68.05
2019-03-13T09:41:32.714Z,67.71
2019-03-13T09:42:32.485Z,66.94
2019-03-13T09:43:32.755Z,65.99
2019-03-13T09:45:32.804Z,66.28
2019-03-13T09:46:32.853Z,66.66
2019-03-13T09:47:32.841Z,66.38
2019-03-13T09:48:47.529Z,66.09
2019-03-13T09:49:32.887Z,66.38
2019-03-13T09:50:32.909Z,67.14
2019-03-13T09:51:32.927Z,67.9
2019-03-13T09:52:32.963Z,66.94
2019-03-13T09:54:33.003Z,64.5
2019-03-13T09:55:33.015Z,64.56
2019-03-13T09:56:33.033Z,64.28
2019-03-13T09:57:33.066Z,64.28
2019-03-13T09:58:33.077Z,64.85
2019-03-13T09:59:45.649Z,65.42
2019-03-13T10:01:33.146Z,66.75
2019-03-13T10:02:32.915Z,67.23
2019-03-13T10:03:47.847Z,66.38
2019-03-13T10:04:33.295Z,66.38
2019-03-13T10:05:33.228Z,67.04
2019-03-13T10:06:33.259Z,66.85
2019-03-13T10:07:33.265Z,67.29
2019-03-13T10:08:33.287Z,67.39
2019-03-13T10:09:33.315Z,67.77
2019-03-13T10:10:33.369Z,67.2
2019-03-13T10:11:33.347Z,67.77
2019-03-13T10:12:33.373Z,68.05
2019-03-13T10:13:33.386Z,67.39
2019-03-13T10:14:33.416Z,66.63
2019-03-13T10:16:33.453Z,65.96
2019-03-13T10:17:33.468Z,67.1
2019-03-13T10:19:33.510Z,65.39
2019-03-13T10:20:33.528Z,65.96
2019-03-13T10:21:33.547Z,66.53
2019-03-13T10:22:33.573Z,67.96
2019-03-13T10:23:33.589Z,66.47
2019-03-13T10:24:33.607Z,65.04
2019-03-13T10:25:33.628Z,64.78
2019-03-13T10:26:33.653Z,64.88
2019-03-13T10:27:33.672Z,65.13
2019-03-13T10:28:33.691Z,63.13
2019-03-13T10:29:33.709Z,64.12
2019-03-13T10:30:33.737Z,64.02
2019-03-13T10:32:33.773Z,62.75
2019-03-13T10:33:33.792Z,62.27
2019-03-13T10:34:33.914Z,63.7
2019-03-13T10:35:48.499Z,63.32
2019-03-13T10:36:33.855Z,63.35
2019-03-13T10:37:33.876Z,63.26
2019-03-13T10:38:33.894Z,63.07
2019-03-13T10:39:33.915Z,63.92
2019-03-13T10:40:33.936Z,63.54
2019-03-13T10:41:34.006Z,63.42
2019-03-13T10:42:33.977Z,63.89
2019-03-13T10:43:34.001Z,63.51
2019-03-13T10:44:34.018Z,64.28
2019-03-13T10:45:34.038Z,64.56
2019-03-13T10:47:34.081Z,64.47
2019-03-13T10:48:34.102Z,64.09
2019-03-13T10:49:34.121Z,64.28
2019-03-13T10:50:34.142Z,64.28
2019-03-13T10:51:48.824Z,63.04
2019-03-13T10:52:34.193Z,63.51
2019-03-13T10:53:34.201Z,63.51
2019-03-13T10:54:34.299Z,63.39
2019-03-13T10:55:34.246Z,63.1
2019-03-13T10:56:34.262Z,63.76
2019-03-13T10:57:34.355Z,64.47
2019-03-13T10:58:34.301Z,63.04
2019-03-13T10:59:34.326Z,64.28
2019-03-13T11:00:34.367Z,64.09
2019-03-13T11:01:34.373Z,64.81
2019-03-13T11:02:34.154Z,64.43
2019-03-13T11:03:34.406Z,64.91
2019-03-13T11:04:34.425Z,64.72
2019-03-13T11:05:34.449Z,64.43
2019-03-13T11:06:34.463Z,64.15
2019-03-13T11:07:49.147Z,64.24
2019-03-13T11:08:34.502Z,63.86
2019-03-13T11:09:34.531Z,64.24
2019-03-13T11:10:34.542Z,64.37
2019-03-13T11:11:34.561Z,64.37
2019-03-13T11:12:34.585Z,64.47
2019-03-13T11:13:34.606Z,64.28
2019-03-13T11:14:34.624Z,64.28
2019-03-13T11:15:34.641Z,63.04
2019-03-13T11:16:34.661Z,63.2
2019-03-13T11:17:34.443Z,64.15
2019-03-13T11:19:34.725Z,63.13
2019-03-13T11:20:34.741Z,62.91
2019-03-13T11:21:34.761Z,62.81
2019-03-13T11:22:34.883Z,64.05
2019-03-13T11:23:49.463Z,63.42
2019-03-13T11:24:34.826Z,62.84
2019-03-13T11:25:34.853Z,63.13
2019-03-13T11:26:34.857Z,62.75
2019-03-13T11:27:34.878Z,64.65
2019-03-13T11:28:34.897Z,64.09
2019-03-13T11:29:34.928Z,65.04
2019-03-13T11:30:34.944Z,64.72
2019-03-13T11:31:34.960Z,65.39
2019-03-13T11:32:34.983Z,65.52
2019-03-13T11:33:35.006Z,65.33
2019-03-13T11:34:35.022Z,65.42
2019-03-13T11:36:37.481Z,65.1
2019-03-13T11:37:35.075Z,65.1
2019-03-13T11:38:49.759Z,65.48
2019-03-13T11:39:35.115Z,65.67
2019-03-13T11:40:35.139Z,65.67
2019-03-13T11:41:35.159Z,65.86
2019-03-13T11:42:35.172Z,64.24
2019-03-13T11:43:35.198Z,64.91
2019-03-13T11:45:35.243Z,65.13
2019-03-13T11:46:35.253Z,65.23
2019-03-13T11:47:44.912Z,65.42
2019-03-13T11:48:35.296Z,65.13
2019-03-13T11:50:35.337Z,65.23
2019-03-13T11:52:35.369Z,64.85
2019-03-13T11:53:35.405Z,65.39
2019-03-13T11:54:35.409Z,65.67
2019-03-13T11:55:35.434Z,65.29
2019-03-13T11:57:35.470Z,64.94
2019-03-13T11:58:35.488Z,65.04
2019-03-13T11:59:35.506Z,65.2
2019-03-13T12:00:35.526Z,65.48
2019-03-13T12:01:47.627Z,65.39
2019-03-13T12:02:35.568Z,65.48
2019-03-13T12:03:35.584Z,65.39
2019-03-13T12:04:35.607Z,64.24
2019-03-13T12:05:35.625Z,64.43
2019-03-13T12:06:35.642Z,64.34
2019-03-13T12:07:35.666Z,63.96
2019-03-13T12:08:35.686Z,65
2019-03-13T12:09:35.705Z,65.07
2019-03-13T12:10:50.386Z,64.87
2019-03-13T12:11:35.741Z,64.97
2019-03-13T12:12:35.759Z,65.64
2019-03-13T12:13:35.778Z,65.73
2019-03-13T12:14:35.798Z,65.73
2019-03-13T12:15:35.820Z,66.11
2019-03-13T12:16:35.846Z,66.5
2019-03-13T12:17:35.858Z,66.11
2019-03-13T12:18:35.874Z,66.59
2019-03-13T12:19:35.895Z,66.4
2019-03-13T12:20:35.913Z,67.16
2019-03-13T12:21:35.941Z,65.83
2019-03-13T12:22:36.006Z,65.45
2019-03-13T12:25:36.006Z,65.73
2019-03-13T12:26:50.691Z,65.83
2019-03-13T12:27:36.048Z,66.5
2019-03-13T12:28:36.068Z,67.35
2019-03-13T12:29:36.101Z,67.16
2019-03-13T12:30:36.111Z,67.26
2019-03-13T12:31:36.120Z,66.97
2019-03-13T12:32:36.139Z,67.45
2019-03-13T12:33:37.887Z,67.61
2019-03-13T12:34:36.177Z,67.55
2019-03-13T12:35:36.206Z,67.99
2019-03-13T12:36:36.218Z,67.16
2019-03-13T12:37:36.233Z,67.16
2019-03-13T12:38:36.253Z,67.16
2019-03-13T12:39:36.270Z,67.07
2019-03-13T12:40:36.293Z,67.26
2019-03-13T12:41:36.306Z,66.21
2019-03-13T12:42:50.989Z,66.88
2019-03-13T12:43:36.347Z,66.78
2019-03-13T12:44:36.363Z,66.31
2019-03-13T12:45:36.396Z,67.35
2019-03-13T12:46:36.400Z,66.31
2019-03-13T12:47:36.427Z,65.92
2019-03-13T12:48:36.438Z,66.21
2019-03-13T12:49:36.455Z,66.59
2019-03-13T12:50:36.838Z,66.69
2019-03-13T12:51:36.498Z,66.97
2019-03-13T12:52:36.518Z,67.16
2019-03-13T12:53:36.530Z,66.88
2019-03-13T12:56:36.588Z,66.02
2019-03-13T12:57:36.604Z,66.97
2019-03-13T12:58:51.287Z,66.21
2019-03-13T12:59:36.643Z,66.4
2019-03-13T13:00:36.700Z,66.88
2019-03-13T13:01:36.683Z,66.4
2019-03-13T13:02:36.699Z,65.92
2019-03-13T13:03:36.717Z,65.73
2019-03-13T13:05:36.757Z,66.97
2019-03-13T13:06:36.871Z,67.26
2019-03-13T13:07:36.796Z,67.74
2019-03-13T13:08:36.813Z,67.16
2019-03-13T13:10:36.850Z,66.21
2019-03-13T13:11:36.868Z,66.5
2019-03-13T13:12:36.885Z,67.26
2019-03-13T13:13:51.567Z,67.55
2019-03-13T13:14:36.925Z,67.83
2019-03-13T13:15:36.953Z,67.07
2019-03-13T13:16:36.964Z,66.5
2019-03-13T13:17:37.005Z,67.64
2019-03-13T13:18:36.996Z,67.45
2019-03-13T13:19:37.016Z,67.93
2019-03-13T13:20:37.034Z,67.93
2019-03-13T13:21:37.053Z,68.18
2019-03-13T13:22:37.071Z,67.61
2019-03-13T13:23:37.096Z,68.18
2019-03-13T13:24:37.110Z,68.08
2019-03-13T13:26:37.144Z,67.61
2019-03-13T13:27:37.164Z,68.27
2019-03-13T13:28:37.181Z,68.08
2019-03-13T13:29:37.213Z,68.18
2019-03-13T13:30:37.222Z,68.37
2019-03-13T13:31:37.240Z,68.27
2019-03-13T13:33:37.275Z,68.46
2019-03-13T13:34:37.293Z,68.84
2019-03-13T13:35:37.310Z,68.37
2019-03-13T13:36:37.331Z,68.94
2019-03-13T13:37:37.346Z,69.13
2019-03-13T13:38:37.365Z,68.65
2019-03-13T13:39:37.135Z,68.37
2019-03-13T13:40:37.405Z,68.84
2019-03-13T13:42:37.444Z,68.75
2019-03-13T13:43:37.459Z,68.46
2019-03-13T13:44:37.475Z,68.94
2019-03-13T13:45:52.257Z,68.46
2019-03-13T13:46:37.516Z,68.65
2019-03-13T13:47:37.531Z,69.13
2019-03-13T13:48:37.552Z,68.65
2019-03-13T13:49:37.566Z,68.75
2019-03-13T13:50:37.591Z,68.37
2019-03-13T13:51:37.605Z,68.56
2019-03-13T13:52:37.625Z,68.56
2019-03-13T13:53:37.642Z,68.59
2019-03-13T13:54:37.667Z,68.3